Wheatley, Arkansas
Current Conditions -  °F | °C
As of 10:15 AM on Thursday 29 Jan 2015 (Local Time) from KSGT Reporting Station
Clear Clear  
Wind Chill: 59°   Ceiling: Unl
Heat Index: 59°   Visibility: 10mi
Dew Point: 46°   Wind: 10mph
Humidity: 63%   Direction: 260°W
Pressure: 30.13"   Gusts: NA
Location:  34.91°N, 91.11°W
Report Text: KSGT 291615Z AUTO 26009KT 10SM CLR 15/08 A3013 RMK AO1
Loading
Personal Weather Stations






























Interactive Weather Map New forecast layout! Learn more

10-Day Weather Forecast

Advertisements
Track Severe Weather on mobile